Time;durP1;ratioP1;P1;durP2;ratioP2;P2;SDS_P1;SDS_P2;PMS_P1;PMS_P2;Temp;Humidity;BMP_temperature;BMP_pressure;BME280_temperature;BME280_humidity;BME280_pressure;Samples;Min_cycle;Max_cycle;Signal;HPM_P1;HPM_P2
2023/01/13 00:02:07;;;;;;;14.27;8.13;;;;;;;2.88;84.24;95562.38;4994040;28;20126;-78
2023/01/13 00:04:33;;;;;;;17.50;9.77;;;;;;;2.33;84.34;95482.91;4994833;28;20028;-79
2023/01/13 00:06:58;;;;;;;15.13;8.40;;;;;;;2.36;84.16;95495.59;5012548;28;20550;-79
2023/01/13 00:09:24;;;;;;;14.68;8.82;;;;;;;2.44;84.25;95512.84;5011922;28;20092;-78
2023/01/13 00:11:50;;;;;;;15.15;9.05;;;;;;;2.78;84.74;95575.16;5011140;28;20104;-78
2023/01/13 00:14:16;;;;;;;11.70;7.32;;;;;;;2.77;84.24;95578.81;5002022;28;20046;-78
2023/01/13 00:16:42;;;;;;;13.90;7.78;;;;;;;2.77;84.68;95570.13;4975091;28;20034;-78
2023/01/13 00:19:07;;;;;;;14.95;8.43;;;;;;;2.72;85.06;95568.97;4975154;28;20093;-78
2023/01/13 00:21:33;;;;;;;12.68;8.38;;;;;;;2.81;84.59;95580.00;4992036;28;20519;-80
2023/01/13 00:23:59;;;;;;;15.10;8.52;;;;;;;2.28;85.08;95501.88;4974660;28;20072;-79
2023/01/13 00:26:26;;;;;;;14.80;8.90;;;;;;;2.41;84.75;95502.78;4992752;28;20034;-79
2023/01/13 00:28:57;;;;;;;13.57;8.30;;;;;;;3.00;84.48;95571.13;4974884;28;20416;-79
2023/01/13 00:31:22;;;;;;;15.05;8.77;;;;;;;2.70;83.75;95526.47;4973704;28;20038;-79
2023/01/13 00:33:49;;;;;;;16.35;8.65;;;;;;;2.49;84.51;95529.50;4992242;28;20026;-79
2023/01/13 00:36:16;;;;;;;12.68;7.70;;;;;;;2.51;84.76;95537.16;4974645;28;20391;-79
2023/01/13 00:38:42;;;;;;;14.73;8.85;;;;;;;2.78;84.91;95577.78;4974736;28;20065;-79
2023/01/13 00:41:13;;;;;;;14.27;8.18;;;;;;;2.89;84.38;95579.72;4954731;28;20485;-79
2023/01/13 00:43:39;;;;;;;13.93;8.38;;;;;;;2.26;84.64;95500.50;4991091;28;20042;-78
2023/01/13 00:46:06;;;;;;;14.90;8.20;;;;;;;2.76;85.12;95574.56;4992088;28;20042;-79
2023/01/13 00:48:32;;;;;;;18.08;9.85;;;;;;;2.86;85.06;95574.09;4974560;28;20492;-79
2023/01/13 00:51:06;;;;;;;13.48;8.73;;;;;;;2.85;84.51;95575.09;4991859;28;20065;-79
2023/01/13 00:53:34;;;;;;;15.32;9.23;;;;;;;2.52;84.25;95508.09;4991575;28;20038;-79
2023/01/13 00:56:08;;;;;;;16.70;10.18;;;;;;;2.99;84.02;95571.34;4991884;28;20038;-79
2023/01/13 00:58:34;;;;;;;18.65;10.38;;;;;;;2.57;84.07;95510.91;4974254;28;20125;-79
2023/01/13 01:01:09;;;;;;;20.58;11.15;;;;;;;2.94;83.75;95564.13;4992933;28;20054;-75
2023/01/13 01:03:35;;;;;;;28.00;12.00;;;;;;;2.51;83.78;95485.59;4994706;28;20093;-75
2023/01/13 01:06:18;;;;;;;19.50;11.15;;;;;;;2.44;83.80;95497.91;4977137;28;20046;-76
2023/01/13 01:08:43;;;;;;;16.05;9.93;;;;;;;2.47;83.89;95468.69;4995131;28;20088;-76
2023/01/13 01:11:14;;;;;;;18.60;10.43;;;;;;;2.98;83.63;95539.09;4993518;28;20039;-76
2023/01/13 01:13:40;;;;;;;18.15;9.10;;;;;;;2.96;83.54;95561.31;4993466;28;20097;-76
2023/01/13 01:16:11;;;;;;;19.17;10.40;;;;;;;2.97;83.55;95549.81;4976864;28;20428;-76
2023/01/13 01:18:38;;;;;;;;;;;;;;;2.96;83.58;95556.06;4975364;28;20048;-76
2023/01/13 01:21:06;;;;;;;17.67;10.32;;;;;;;2.83;84.00;95545.69;4993416;28;19964;-76
2023/01/13 01:23:33;;;;;;;14.55;9.18;;;;;;;2.72;83.51;95537.56;4993093;28;20049;-76
2023/01/13 01:26:05;;;;;;;16.90;9.68;;;;;;;2.77;84.38;95547.38;4977156;28;20041;-76
2023/01/13 01:28:32;;;;;;;17.38;10.48;;;;;;;2.78;84.44;95550.78;4975935;28;20039;-76
2023/01/13 01:30:58;;;;;;;14.93;8.93;;;;;;;2.18;84.90;95479.81;4975870;28;20424;-76
2023/01/13 01:33:24;;;;;;;17.15;9.80;;;;;;;2.24;84.79;95471.91;4993512;28;20038;-76
2023/01/13 01:35:50;;;;;;;15.75;9.30;;;;;;;2.75;84.86;95552.00;4977279;28;20064;-76
2023/01/13 01:38:15;;;;;;;14.55;8.63;;;;;;;2.63;84.80;95548.50;4976565;28;20034;-76
2023/01/13 01:40:41;;;;;;;15.75;9.18;;;;;;;2.32;85.01;95508.28;4974830;28;20549;-76
2023/01/13 01:46:03;;;;;;;16.25;9.85;;;;;;;2.58;85.36;95540.50;4979486;28;20072;-76
2023/01/13 01:48:33;;;;;;;16.13;9.88;;;;;;;2.19;85.51;95487.47;4994753;28;20066;-76
2023/01/13 01:51:00;;;;;;;15.38;9.57;;;;;;;2.43;85.34;95506.00;4994315;28;20034;-76
2023/01/13 01:53:28;;;;;;;15.70;9.45;;;;;;;2.47;84.78;95507.97;4976529;28;20599;-76
2023/01/13 01:55:56;;;;;;;17.88;9.50;;;;;;;2.23;85.06;95483.38;4993078;28;20117;-76
2023/01/13 01:58:27;;;;;;;14.38;8.63;;;;;;;2.15;84.87;95464.53;4993482;28;20097;-76
2023/01/13 02:00:53;;;;;;;16.92;8.75;;;;;;;1.98;85.05;95429.47;4976244;28;20034;-76
2023/01/13 02:03:19;;;;;;;18.80;9.23;;;;;;;2.59;85.16;95537.69;4993793;28;20121;-76
2023/01/13 02:05:44;;;;;;;19.80;9.48;;;;;;;2.15;85.21;95467.97;4974360;28;20072;-76
2023/01/13 02:08:12;;;;;;;17.25;9.63;;;;;;;2.62;84.91;95534.63;4993344;28;20428;-76
2023/01/13 02:10:40;;;;;;;14.60;9.25;;;;;;;2.17;85.22;95460.69;4992973;28;20034;-76
2023/01/13 02:13:09;;;;;;;16.90;9.63;;;;;;;2.54;85.07;95519.16;4964655;28;20039;-76
2023/01/13 02:15:53;;;;;;;15.65;9.63;;;;;;;2.55;85.11;95531.25;4956723;28;20515;-76
2023/01/13 02:18:30;;;;;;;13.55;8.00;;;;;;;2.56;85.02;95534.66;4980749;28;20034;-76
2023/01/13 02:21:10;;;;;;;14.80;8.95;;;;;;;2.53;85.22;95524.63;4993211;28;20042;-76
2023/01/13 02:27:32;;;;;;;13.25;7.70;;;;;;;2.40;85.43;95530.78;4993638;28;20147;-76
2023/01/13 02:33:21;;;;;;;15.13;8.10;;;;;;;2.20;85.14;95486.44;4990395;28;20081;-79
2023/01/13 02:36:07;;;;;;;13.43;8.30;;;;;;;2.31;85.32;95492.78;4971724;28;20034;-79
2023/01/13 02:38:42;;;;;;;15.70;8.70;;;;;;;2.26;85.24;95464.66;4990109;28;20475;-79
2023/01/13 02:44:47;;;;;;;13.10;8.20;;;;;;;2.55;84.72;95504.25;4986951;28;20044;-79
2023/01/13 02:47:24;;;;;;;12.55;8.43;;;;;;;2.68;84.69;95528.50;4972141;28;20042;-80
2023/01/13 02:50:13;;;;;;;13.68;8.90;;;;;;;2.12;84.38;95450.09;4972742;28;20064;-80
2023/01/13 02:52:49;;;;;;;14.95;8.93;;;;;;;2.70;84.18;95530.91;4987757;28;20488;-79
2023/01/13 02:55:18;;;;;;;13.98;9.43;;;;;;;2.23;84.24;95453.81;4989874;28;20037;-79
2023/01/13 02:57:46;;;;;;;16.25;9.15;;;;;;;2.66;84.61;95525.31;4989622;28;20038;-79
2023/01/13 03:00:14;;;;;;;13.77;8.27;;;;;;;2.68;84.54;95523.28;4989377;28;20441;-78
2023/01/13 03:02:39;;;;;;;13.75;8.70;;;;;;;2.64;83.97;95508.22;4989846;28;20041;-79
2023/01/13 03:05:05;;;;;;;16.40;9.55;;;;;;;2.66;83.97;95512.22;4960608;28;20035;-79
2023/01/13 03:07:54;;;;;;;16.23;9.90;;;;;;;2.21;84.45;95453.25;4987608;28;20045;-79
2023/01/13 03:10:43;;;;;;;16.95;9.40;;;;;;;2.69;84.27;95529.31;4990029;28;20073;-79
2023/01/13 03:13:19;;;;;;;16.80;9.52;;;;;;;2.73;84.22;95530.50;4972377;28;20037;-79
2023/01/13 03:15:53;;;;;;;15.73;9.27;;;;;;;2.75;84.03;95502.25;4989987;28;20042;-79
2023/01/13 03:18:39;;;;;;;16.25;10.05;;;;;;;2.90;83.71;95533.38;4989838;28;20519;-79
2023/01/13 03:21:33;;;;;;;14.98;9.63;;;;;;;2.75;84.30;95527.66;4971970;28;20133;-78
2023/01/13 03:24:08;;;;;;;17.48;9.13;;;;;;;2.50;83.76;95455.19;4989856;28;20034;-79
2023/01/13 03:26:49;;;;;;;13.20;9.15;;;;;;;2.89;84.04;95527.31;4971932;28;20050;-79
2023/01/13 03:29:37;;;;;;;17.27;9.60;;;;;;;2.97;83.54;95526.25;4972137;28;20037;-79
2023/01/13 03:32:15;;;;;;;18.00;9.88;;;;;;;2.22;83.53;95421.59;4989390;28;20154;-79
2023/01/13 03:34:46;;;;;;;16.20;10.00;;;;;;;2.79;83.70;95527.00;4974717;28;20045;-78
2023/01/13 03:37:14;;;;;;;14.82;9.23;;;;;;;2.82;83.74;95521.34;4993210;28;20165;-78
2023/01/13 03:39:46;;;;;;;13.73;9.02;;;;;;;2.73;83.20;95501.69;4993608;28;20104;-78
2023/01/13 03:42:17;;;;;;;14.32;8.93;;;;;;;2.52;82.95;95460.19;4992948;28;20026;-78
2023/01/13 03:44:54;;;;;;;13.60;8.85;;;;;;;2.18;83.19;95401.31;4976082;28;20072;-79
2023/01/13 03:47:41;;;;;;;12.48;8.60;;;;;;;2.84;83.37;95542.06;4992738;28;20384;-80
2023/01/13 03:50:20;;;;;;;15.60;9.20;;;;;;;2.79;83.79;95537.50;4975578;28;20042;-79
2023/01/13 03:52:49;;;;;;;12.68;8.45;;;;;;;2.59;83.22;95487.13;4975168;28;20416;-79
2023/01/13 03:55:27;;;;;;;13.63;8.25;;;;;;;2.51;82.80;95442.91;4975753;28;20129;-78
2023/01/13 03:57:57;;;;;;;16.15;8.40;;;;;;;2.71;82.60;95482.75;4992995;28;20485;-79
2023/01/13 04:00:28;;;;;;;12.95;8.43;;;;;;;2.16;83.77;95464.31;4971421;28;20410;-78
2023/01/13 04:03:00;;;;;;;13.57;7.95;;;;;;;2.54;83.92;95521.78;4961071;28;20133;-79
2023/01/13 04:05:27;;;;;;;15.63;8.43;;;;;;;2.13;84.26;95459.53;4992904;28;20038;-79
2023/01/13 04:08:20;;;;;;;13.20;8.43;;;;;;;1.49;84.33;95358.66;4992663;28;20038;-79
2023/01/13 04:10:59;;;;;;;12.32;8.10;;;;;;;2.64;84.39;95523.94;4987949;28;20051;-79
2023/01/13 04:13:29;;;;;;;12.32;8.25;;;;;;;2.78;83.93;95542.94;4975340;28;20138;-79
2023/01/13 04:15:54;;;;;;;15.45;9.70;;;;;;;2.85;83.84;95533.19;4993077;28;20046;-78
2023/01/13 04:18:23;;;;;;;11.95;8.70;;;;;;;2.88;83.44;95543.25;4975113;28;20030;-79
2023/01/13 04:20:51;;;;;;;12.93;8.30;;;;;;;2.84;83.69;95542.88;4974739;28;20489;-79
2023/01/13 04:23:18;;;;;;;11.55;7.97;;;;;;;2.63;84.33;95551.94;4992175;28;20046;-79
2023/01/13 04:25:45;;;;;;;11.85;7.90;;;;;;;2.13;84.58;95484.91;4992737;28;20038;-79
2023/01/13 04:28:12;;;;;;;14.43;7.97;;;;;;;2.74;84.33;95553.06;4975057;28;20034;-79
2023/01/13 04:30:38;;;;;;;15.60;8.50;;;;;;;2.91;83.95;95556.69;4974200;28;20200;-79
2023/01/13 04:33:04;;;;;;;11.68;7.75;;;;;;;2.37;83.72;95488.50;4975113;28;20041;-79
2023/01/13 04:35:30;;;;;;;14.13;8.70;;;;;;;2.76;84.27;95544.97;4992698;28;20042;-79
2023/01/13 04:37:58;;;;;;;13.60;8.10;;;;;;;2.15;83.67;95433.13;4969992;28;20377;-77
2023/01/13 04:40:24;;;;;;;12.85;7.70;;;;;;;2.77;83.72;95557.03;4990555;28;20045;-78
2023/01/13 04:42:49;;;;;;;13.82;8.48;;;;;;;2.77;83.77;95552.59;4991201;28;20034;-79
2023/01/13 04:45:15;;;;;;;11.57;7.35;;;;;;;2.30;83.35;95465.00;4991036;28;20432;-79
2023/01/13 04:47:40;;;;;;;12.00;8.02;;;;;;;2.80;83.50;95560.03;4991676;28;20053;-78
2023/01/13 04:50:06;;;;;;;15.57;8.90;;;;;;;2.14;83.86;95468.97;4990509;28;20046;-78
2023/01/13 04:52:32;;;;;;;12.65;8.35;;;;;;;2.79;83.86;95555.81;4991135;28;20035;-78
2023/01/13 04:54:57;;;;;;;27.85;8.80;;;;;;;2.38;83.49;95484.88;4974063;28;20045;-79
2023/01/13 04:57:23;;;;;;;15.82;9.50;;;;;;;2.65;83.26;95520.28;4974031;28;20064;-78
2023/01/13 04:59:48;;;;;;;13.65;8.55;;;;;;;2.81;83.94;95558.22;4986108;28;20415;-79
2023/01/13 05:02:18;;;;;;;17.02;8.68;;;;;;;2.58;83.89;95525.59;4970840;28;20092;-79
2023/01/13 05:04:45;;;;;;;21.83;10.13;;;;;;;2.46;84.17;95537.75;4991141;28;20061;-79
2023/01/13 05:07:10;;;;;;;23.73;10.68;;;;;;;2.63;84.06;95524.94;4973095;28;20034;-79
2023/01/13 05:09:36;;;;;;;15.63;10.10;;;;;;;2.60;83.64;95517.50;4990134;28;20346;-79
2023/01/13 05:17:30;;;;;;;25.98;10.45;;;;;;;2.29;83.38;95456.34;4984434;28;20045;-79
2023/01/13 05:19:56;;;;;;;21.50;11.18;;;;;;;2.68;82.71;95497.09;4963829;28;20046;-82
2023/01/13 05:25:26;;;;;;;20.90;10.20;;;;;;;2.60;82.59;95489.50;4980503;28;20132;-79
2023/01/13 05:27:57;;;;;;;23.98;11.32;;;;;;;3.30;82.77;95575.66;4980413;28;20041;-78
2023/01/13 05:30:31;;;;;;;18.33;10.20;;;;;;;3.10;82.32;95576.69;4944263;28;20073;-79
2023/01/13 05:32:57;;;;;;;26.10;10.55;;;;;;;2.31;82.98;95466.63;4970352;28;20050;-78
2023/01/13 05:35:25;;;;;;;18.85;10.68;;;;;;;1.00;82.80;95262.72;4959255;28;20061;-80
2023/01/13 05:37:50;;;;;;;14.55;9.07;;;;;;;2.90;83.25;95572.66;4952345;28;20034;-80
2023/01/13 05:43:24;;;;;;;15.77;10.35;;;;;;;3.04;82.90;95582.81;4976205;28;20065;-79
2023/01/13 05:46:02;;;;;;;18.80;11.18;;;;;;;2.46;83.59;95485.41;4964049;28;20029;-79
2023/01/13 05:48:36;;;;;;;28.30;11.38;;;;;;;3.20;82.85;95580.63;4975392;28;20046;-79
2023/01/13 05:51:04;;;;;;;23.15;12.43;;;;;;;2.60;82.35;95473.00;4958670;28;20101;-82
2023/01/13 05:53:30;;;;;;;23.80;12.60;;;;;;;2.97;82.72;95531.47;4973938;28;20436;-79
2023/01/13 05:55:55;;;;;;;24.88;12.35;;;;;;;3.35;82.66;95583.69;4977217;28;20419;-79
2023/01/13 05:58:24;;;;;;;18.45;11.35;;;;;;;3.38;82.01;95585.88;4959437;28;20038;-80
2023/01/13 06:00:50;;;;;;;21.70;11.95;;;;;;;3.33;82.15;95585.72;4953938;28;20138;-79
2023/01/13 06:03:18;;;;;;;20.05;11.55;;;;;;;3.06;82.29;95565.03;4975631;28;20388;-81
2023/01/13 06:05:45;;;;;;;22.75;13.13;;;;;;;3.08;83.38;95597.06;4955802;28;20057;-80
2023/01/13 06:08:12;;;;;;;22.13;11.40;;;;;;;2.39;82.63;95458.50;4970964;28;20048;-80
2023/01/13 06:10:37;;;;;;;21.35;12.82;;;;;;;2.50;82.73;95480.56;4955923;28;20050;-85
2023/01/13 06:13:04;;;;;;;20.23;12.50;;;;;;;2.45;82.44;95475.94;4964946;28;20119;-82
2023/01/13 06:15:30;;;;;;;22.13;12.95;;;;;;;3.20;82.91;95589.28;4955283;28;20196;-78
2023/01/13 06:17:56;;;;;;;25.00;12.88;;;;;;;2.93;83.00;95549.44;4963720;28;20038;-84
2023/01/13 06:20:22;;;;;;;20.23;12.52;;;;;;;2.51;82.76;95488.19;4955920;28;20042;-80
2023/01/13 06:22:50;;;;;;;25.45;13.05;;;;;;;3.24;82.87;95610.63;4965480;28;20193;-83
2023/01/13 06:25:27;;;;;;;25.33;14.43;;;;;;;3.05;83.64;95602.72;4965616;28;20042;-81
2023/01/13 06:27:55;;;;;;;23.08;11.80;;;;;;;2.34;83.65;95508.06;4948020;28;20136;-81
2023/01/13 06:30:20;;;;;;;28.63;13.85;;;;;;;2.77;83.70;95551.81;4954666;28;20093;-81
2023/01/13 06:32:53;;;;;;;24.05;13.20;;;;;;;2.67;82.85;95508.56;4968673;28;20125;-81
2023/01/13 06:35:24;;;;;;;24.67;13.45;;;;;;;2.60;82.51;95481.66;4970507;28;20042;-80
2023/01/13 06:37:53;;;;;;;36.60;14.95;;;;;;;3.24;82.43;95576.53;4968881;28;20034;-81
2023/01/13 06:40:18;;;;;;;24.52;11.80;;;;;;;3.44;82.15;95611.19;4954627;28;20034;-80
2023/01/13 06:45:30;;;;;;;29.90;14.85;;;;;;;3.42;82.38;95615.88;4967156;28;20045;-80
2023/01/13 06:47:58;;;;;;;30.40;12.65;;;;;;;3.38;82.17;95601.59;4967057;28;20121;-79
2023/01/13 06:50:24;;;;;;;28.80;14.25;;;;;;;3.20;82.18;95580.63;4962658;28;20567;-80
2023/01/13 06:52:49;;;;;;;40.88;13.50;;;;;;;3.44;82.28;95590.22;4970537;28;20065;-80
2023/01/13 06:55:15;;;;;;;33.45;13.57;;;;;;;3.36;82.03;95591.31;4949887;28;20101;-81
2023/01/13 06:57:51;;;;;;;27.42;14.00;;;;;;;3.39;82.57;95603.19;4972116;28;20503;-80
2023/01/13 07:00:18;;;;;;;28.75;14.85;;;;;;;3.20;82.46;95549.19;4970508;28;20044;-80
2023/01/13 07:02:43;;;;;;;33.58;15.00;;;;;;;2.76;82.26;95505.66;4965770;28;20211;-80
2023/01/13 07:05:09;;;;;;;31.02;14.65;;;;;;;3.31;82.32;95572.03;4944057;28;20452;-79
2023/01/13 07:07:34;;;;;;;30.40;15.68;;;;;;;3.35;82.15;95583.69;4969757;28;20042;-79
2023/01/13 07:09:59;;;;;;;23.38;13.38;;;;;;;2.04;81.80;95376.31;4958382;28;20074;-78
2023/01/13 07:12:25;;;;;;;24.80;12.23;;;;;;;2.98;81.60;95522.56;4950313;28;20502;-79
2023/01/13 07:17:34;;;;;;;28.85;12.63;;;;;;;3.21;81.45;95548.13;4967834;28;20081;-82
2023/01/13 07:20:00;;;;;;;24.27;14.40;;;;;;;3.04;81.38;95535.63;4974332;28;20648;-81
2023/01/13 07:22:25;;;;;;;19.35;10.55;;;;;;;3.23;81.87;95591.47;4976750;28;20045;-80
2023/01/13 07:24:50;;;;;;;24.95;12.15;;;;;;;2.59;81.18;95469.59;4971075;28;20058;-79
2023/01/13 07:27:16;;;;;;;24.80;11.38;;;;;;;3.43;80.85;95580.78;4975248;28;20038;-80
2023/01/13 07:29:42;;;;;;;25.85;12.40;;;;;;;3.70;81.13;95605.69;4980861;28;20042;-79
2023/01/13 07:32:08;;;;;;;21.38;12.70;;;;;;;3.91;80.35;95606.22;4973950;28;20038;-79
2023/01/13 07:34:34;;;;;;;25.98;11.60;;;;;;;3.82;79.87;95598.66;4960622;28;20914;-80
2023/01/13 07:36:59;;;;;;;29.30;11.52;;;;;;;3.35;79.51;95536.50;4948995;28;20060;-80
2023/01/13 07:39:25;;;;;;;21.55;10.82;;;;;;;3.37;79.47;95545.72;4972096;28;20087;-81
2023/01/13 07:44:34;;;;;;;22.25;10.15;;;;;;;3.41;79.13;95523.31;4975142;28;20108;-79
2023/01/13 07:46:59;;;;;;;19.45;10.93;;;;;;;3.62;78.85;95560.59;4966340;28;21794;-80
2023/01/13 07:49:25;;;;;;;15.70;9.13;;;;;;;3.42;79.30;95555.59;4970137;28;20050;-80
2023/01/13 07:51:50;;;;;;;18.63;10.52;;;;;;;1.92;79.20;95331.72;4968267;28;20704;-81
2023/01/13 07:54:16;;;;;;;20.42;10.65;;;;;;;3.47;79.32;95556.50;4963897;28;20555;-82
2023/01/13 07:56:41;;;;;;;24.38;10.15;;;;;;;3.83;79.25;95608.13;4952073;28;20120;-84
2023/01/13 07:59:06;;;;;;;29.88;12.05;;;;;;;3.42;78.73;95501.31;4953118;28;20030;-82
2023/01/13 08:01:32;;;;;;;25.05;10.45;;;;;;;4.21;78.00;95604.41;4969462;28;20726;-79
2023/01/13 08:03:57;;;;;;;20.35;9.85;;;;;;;3.66;77.78;95548.66;4958422;28;20030;-81
2023/01/13 08:06:24;;;;;;;36.80;11.15;;;;;;;1.84;77.37;95264.81;4959460;28;20153;-83
2023/01/13 08:08:50;;;;;;;27.60;10.68;;;;;;;3.53;77.83;95525.97;4961110;28;20034;-82
2023/01/13 08:11:16;;;;;;;20.45;11.23;;;;;;;4.27;77.92;95622.69;4954833;28;20105;-79
2023/01/13 08:13:41;;;;;;;23.25;12.52;;;;;;;3.57;77.64;95527.16;4973869;28;20667;-79
2023/01/13 08:16:09;;;;;;;21.83;11.15;;;;;;;4.10;77.60;95615.69;4955083;28;20044;-79
2023/01/13 08:18:35;;;;;;;27.33;11.23;;;;;;;3.92;77.19;95586.84;4963608;28;20039;-79
2023/01/13 08:21:13;;;;;;;23.50;11.10;;;;;;;3.96;77.28;95591.44;4957337;28;20037;-81
2023/01/13 08:23:40;;;;;;;19.80;11.50;;;;;;;3.80;77.29;95553.50;4954521;28;20889;-78
2023/01/13 08:26:09;;;;;;;22.73;12.15;;;;;;;4.28;76.80;95624.31;4950503;28;20031;-80
2023/01/13 08:28:34;;;;;;;23.05;12.32;;;;;;;4.36;77.01;95625.81;4973304;28;20034;-78
2023/01/13 08:31:05;;;;;;;26.02;13.23;;;;;;;3.72;77.10;95511.81;4973767;28;20109;-80
2023/01/13 08:33:31;;;;;;;24.60;11.35;;;;;;;4.16;76.91;95575.41;4969639;28;20693;-79
2023/01/13 08:35:57;;;;;;;31.58;12.18;;;;;;;4.60;75.98;95611.72;4949204;28;20038;-79
2023/01/13 08:38:23;;;;;;;20.00;10.73;;;;;;;3.68;74.96;95470.50;4964757;28;20038;-79
2023/01/13 08:40:49;;;;;;;30.65;11.30;;;;;;;4.11;75.28;95546.41;4951284;28;20050;-79
2023/01/13 08:43:15;;;;;;;26.27;11.20;;;;;;;3.74;75.42;95467.00;4972679;28;20038;-79
2023/01/13 08:45:40;;;;;;;23.95;10.82;;;;;;;4.23;74.06;95523.63;4974426;28;20038;-79
2023/01/13 08:48:07;;;;;;;19.52;10.95;;;;;;;4.21;74.20;95499.41;4953529;28;20100;-79
2023/01/13 08:50:33;;;;;;;23.50;11.40;;;;;;;4.66;73.96;95597.69;4966351;28;20061;-83
2023/01/13 08:52:59;;;;;;;34.92;12.18;;;;;;;4.81;74.67;95606.94;4969753;28;20042;-79
2023/01/13 08:55:24;;;;;;;23.00;10.70;;;;;;;4.05;74.47;95494.81;4956373;28;20037;-79
2023/01/13 08:57:50;;;;;;;17.85;10.00;;;;;;;4.23;74.34;95519.16;4965643;28;20034;-78
2023/01/13 09:00:15;;;;;;;23.27;10.77;;;;;;;4.68;74.69;95579.06;4951565;28;20120;-80
2023/01/13 09:02:41;;;;;;;18.73;10.77;;;;;;;4.80;73.86;95616.69;4950284;28;20041;-79
2023/01/13 09:05:08;;;;;;;24.90;11.57;;;;;;;4.22;73.92;95486.06;4968994;28;20049;-79
2023/01/13 09:07:35;;;;;;;21.25;11.38;;;;;;;4.77;73.46;95598.75;4972228;28;20034;-80
2023/01/13 09:10:02;;;;;;;28.35;13.25;;;;;;;4.89;73.93;95598.72;4971925;28;20044;-80
2023/01/13 09:15:12;;;;;;;19.48;12.00;;;;;;;4.46;73.39;95515.78;4976455;28;20385;-81
2023/01/13 09:17:37;;;;;;;19.98;10.00;;;;;;;4.84;72.36;95533.72;4956120;28;20034;-80
2023/01/13 09:20:04;;;;;;;18.75;8.95;;;;;;;4.51;72.42;95507.22;4971941;28;20413;-79
2023/01/13 09:22:30;;;;;;;25.23;9.73;;;;;;;4.66;72.21;95518.06;4971901;28;20038;-81
2023/01/13 09:24:55;;;;;;;26.00;10.57;;;;;;;5.32;71.81;95607.09;4957556;28;20421;-81
2023/01/13 09:27:21;;;;;;;19.95;9.10;;;;;;;4.65;71.51;95501.50;4954252;28;20114;-80
2023/01/13 09:29:47;;;;;;;22.88;10.63;;;;;;;4.95;72.28;95572.38;4971379;28;20213;-81
2023/01/13 09:32:13;;;;;;;20.63;9.75;;;;;;;5.21;72.17;95600.00;4953107;28;20030;-80
2023/01/13 09:37:23;;;;;;;15.70;9.75;;;;;;;5.23;72.53;95599.78;4973369;28;20100;-80
2023/01/13 09:39:48;;;;;;;15.70;8.30;;;;;;;4.92;72.30;95527.34;4956175;28;20038;-80
2023/01/13 09:45:26;;;;;;;14.35;7.75;;;;;;;4.75;71.66;95523.78;4970032;28;20045;-83
2023/01/13 09:48:17;;;;;;;20.15;8.05;;;;;;;4.96;72.14;95555.53;4952806;28;20038;-81
2023/01/13 09:50:58;;;;;;;15.35;7.55;;;;;;;5.15;72.42;95598.31;4953470;28;20034;-82
2023/01/13 09:53:31;;;;;;;19.83;8.15;;;;;;;4.61;72.67;95508.25;4972119;28;20148;-78
2023/01/13 09:55:56;;;;;;;17.15;7.30;;;;;;;5.29;71.83;95588.34;4969603;28;20133;-79
2023/01/13 09:58:21;;;;;;;18.88;8.13;;;;;;;4.22;71.81;95441.44;4956649;28;20133;-79
2023/01/13 10:01:07;;;;;;;17.92;7.10;;;;;;;5.07;72.17;95576.81;4957884;28;20038;-79
2023/01/13 10:03:34;;;;;;;12.43;7.50;;;;;;;5.10;72.49;95584.25;4955965;28;20038;-79
2023/01/13 10:06:21;;;;;;;13.30;7.68;;;;;;;5.24;72.27;95583.78;4953215;28;20084;-79
2023/01/13 10:08:48;;;;;;;7.82;4.68;;;;;;;5.19;71.57;95577.63;4968736;28;20199;-79
2023/01/13 10:14:12;;;;;;;12.18;5.95;;;;;;;4.66;71.49;95466.31;4967522;28;20060;-79
2023/01/13 10:17:00;;;;;;;12.48;5.68;;;;;;;5.45;71.14;95582.38;4952673;28;20030;-83
2023/01/13 10:19:33;;;;;;;16.58;6.40;;;;;;;5.20;70.77;95514.25;4950919;28;20038;-80
2023/01/13 10:22:05;;;;;;;9.13;4.80;;;;;;;5.57;70.71;95574.47;4970436;28;20069;-79
2023/01/13 10:24:55;;;;;;;8.98;4.47;;;;;;;5.50;70.72;95577.22;4966922;28;20042;-81
2023/01/13 10:27:33;;;;;;;9.37;4.60;;;;;;;5.61;70.35;95570.34;4971474;28;20054;-80
2023/01/13 10:30:32;;;;;;;6.40;4.15;;;;;;;5.56;70.52;95576.31;4966862;28;20300;-79
2023/01/13 10:33:01;;;;;;;8.75;5.03;;;;;;;5.67;70.82;95572.84;4944308;28;22052;-82
2023/01/13 10:35:56;;;;;;;12.35;4.68;;;;;;;5.77;69.76;95565.16;4937892;28;20035;-78
2023/01/13 10:38:25;;;;;;;20.75;5.20;;;;;;;6.04;69.35;95565.41;4945498;28;20117;-81
2023/01/13 10:41:20;;;;;;;10.18;4.78;;;;;;;5.89;68.73;95499.31;4967584;28;20037;-78
2023/01/13 10:44:24;;;;;;;9.38;4.82;;;;;;;6.42;67.99;95554.25;4946477;28;20050;-79
2023/01/13 10:46:55;;;;;;;9.45;4.78;;;;;;;6.48;68.11;95552.50;4897822;29;20513;-78
2023/01/13 10:49:31;;;;;;;11.50;4.88;;;;;;;6.30;67.86;95534.28;4963180;28;20054;-78
2023/01/13 10:51:57;;;;;;;16.65;7.03;;;;;;;6.07;67.55;95485.97;4970040;28;20689;-80
2023/01/13 10:54:25;;;;;;;11.02;4.57;;;;;;;6.23;67.86;95549.44;4957887;28;20042;-81
2023/01/13 10:57:21;;;;;;;12.55;6.22;;;;;;;6.28;68.39;95549.50;4933018;28;20062;-80
2023/01/13 10:59:47;;;;;;;8.82;4.82;;;;;;;6.45;67.38;95547.72;4976947;28;20034;-80
2023/01/13 11:02:15;;;;;;;19.45;9.20;;;;;;;6.57;67.25;95548.41;4983236;28;20068;-79
2023/01/13 11:04:53;;;;;;;10.52;5.88;;;;;;;6.30;67.23;95521.91;4977954;28;20073;-81
2023/01/13 11:07:44;;;;;;;12.13;6.97;;;;;;;6.37;68.48;95542.81;4959650;28;20148;-80
2023/01/13 11:10:30;;;;;;;18.33;6.65;;;;;;;6.22;68.89;95540.72;4952684;28;20773;-80
2023/01/13 11:13:02;;;;;;;11.52;5.97;;;;;;;6.51;67.75;95533.56;4976145;28;20073;-78
2023/01/13 11:15:40;;;;;;;15.07;6.68;;;;;;;6.72;67.31;95530.22;4966563;28;20050;-81
2023/01/13 11:18:24;;;;;;;10.73;6.55;;;;;;;6.66;67.02;95528.53;4956077;28;20122;-83
2023/01/13 11:20:51;;;;;;;15.63;6.88;;;;;;;5.62;68.31;95406.97;4963241;28;20133;-78
2023/01/13 11:23:31;;;;;;;13.15;6.45;;;;;;;6.36;68.09;95525.41;4954962;28;20762;-80
2023/01/13 11:26:07;;;;;;;19.83;7.45;;;;;;;6.35;68.28;95511.44;4953252;28;20117;-78
2023/01/13 11:28:54;;;;;;;12.15;6.00;;;;;;;6.42;68.47;95524.47;4951930;28;20699;-80
2023/01/13 11:31:19;;;;;;;12.80;6.55;;;;;;;6.37;67.90;95524.38;4962062;28;20039;-81
2023/01/13 11:33:58;;;;;;;11.38;4.95;;;;;;;6.50;67.83;95531.97;4970001;28;20762;-78
2023/01/13 11:36:48;;;;;;;11.73;5.55;;;;;;;6.56;67.42;95521.28;4973376;28;20074;-78
2023/01/13 11:39:35;;;;;;;10.00;4.65;;;;;;;6.30;67.81;95518.47;4956537;28;20037;-77
2023/01/13 11:42:20;;;;;;;9.43;3.67;;;;;;;5.57;67.37;95403.47;4959155;28;20026;-78
2023/01/13 11:45:10;;;;;;;8.50;4.18;;;;;;;6.40;67.32;95513.38;4954825;28;20558;-78
2023/01/13 11:47:37;;;;;;;12.10;4.97;;;;;;;6.44;67.15;95517.13;4974046;28;20105;-78
2023/01/13 11:50:06;;;;;;;6.80;4.47;;;;;;;6.57;66.77;95511.53;4968034;28;20667;-78
2023/01/13 11:52:49;;;;;;;15.32;4.93;;;;;;;6.59;67.07;95515.53;4970999;28;20413;-78
2023/01/13 11:55:26;;;;;;;11.95;5.25;;;;;;;6.70;66.59;95507.78;4957657;28;20049;-78
2023/01/13 11:58:10;;;;;;;10.73;5.55;;;;;;;6.47;67.74;95509.56;4958334;28;20030;-77
2023/01/13 12:01:09;;;;;;;15.13;7.22;;;;;;;6.09;69.50;95512.88;4974743;28;20038;-78
2023/01/13 12:03:57;;;;;;;19.58;7.53;;;;;;;6.07;69.81;95507.03;4960585;28;20501;-80
2023/01/13 12:06:23;;;;;;;14.48;6.90;;;;;;;6.05;70.53;95505.66;4953418;28;20397;-78
2023/01/13 12:09:10;;;;;;;14.07;6.97;;;;;;;6.03;70.41;95502.47;4955654;28;20034;-79
2023/01/13 12:12:18;;;;;;;14.82;6.55;;;;;;;6.02;70.21;95499.06;4953701;28;20450;-78
2023/01/13 12:14:49;;;;;;;18.88;7.50;;;;;;;6.09;70.24;95499.69;4970775;28;20154;-79
2023/01/13 12:17:25;;;;;;;13.02;7.32;;;;;;;5.66;70.65;95441.50;4969649;28;20046;-79
2023/01/13 12:19:50;;;;;;;16.23;8.38;;;;;;;5.57;70.82;95448.19;4975388;28;20054;-80
2023/01/13 12:22:24;;;;;;;14.35;8.60;;;;;;;5.77;71.13;95474.88;4969589;28;20494;-78
2023/01/13 12:25:11;;;;;;;14.80;8.02;;;;;;;5.35;71.18;95419.91;4970157;28;20031;-77
2023/01/13 12:27:46;;;;;;;25.15;8.73;;;;;;;5.63;71.49;95478.81;4956718;28;20046;-77
2023/01/13 12:30:28;;;;;;;23.70;8.07;;;;;;;5.72;71.44;95499.25;4978726;28;20047;-77
2023/01/13 12:32:58;;;;;;;12.82;7.50;;;;;;;5.85;71.47;95495.56;4975471;28;20124;-77
2023/01/13 12:35:50;;;;;;;16.73;8.13;;;;;;;5.56;70.97;95446.59;4979807;28;20979;-77